Kahlotus, WA (99335)

8:30 PM PDT en Julio 29, 2016 (GMT -0700)
Kahlotus | | Change Station
Aviso en curso: Fire Weather Warning

Alt 1230 ft 46.64 °N, 118.56 °W | Updated 5 minutes ago

Clear
Despejado
95.3 ° F
Sensación térmica 91 ° F
N
4.0
Viento Variable Viento desde ONO
Gusts 7.0 mph

Hoy
Alta -- | Baja -- ° F
--% Posibilidad de precipitaciones
Ayer
Alta -- | Baja -- ° F
Precip. -- pul
Presión 29.66 pul
Visibilidad 10.0 Millas
Nubes Despejado
Índice de calor 91 ° F
Punto de rocío 46 ° F
Humedad 18%
Precipitaciones 0.00 pul
Espesor de la nieve No disponible.
5:31 AM 8:28 PM
Creciente menguante, 17% visible
METAR KPSC 300253Z 15008KT 10SM CLR 38/09 A2967 RMK AO2 SLP044 T03780089 56019
Presión 29.66 pul
Visibilidad 10.0 Millas
Nubes Despejado
Índice de calor 91 ° F
Punto de rocío 46 ° F
Humedad 18%
Precipitaciones 0.00 pul
Espesor de la nieve No disponible.
5:31 AM 8:28 PM
Creciente menguante, 17% visible
METAR KPSC 300253Z 15008KT 10SM CLR 38/09 A2967 RMK AO2 SLP044 T03780089 56019

10-Day Weather Forecast

Almanac

Astronomía

Jul. 29, 2016 Salida Puesta
Hora real
Crepúsculo civil
Crepúsculo náutico
Crepúsculo astronómico
Luna
Horas de luz
Horas de luz
Tomorrow will be .
, % of the Moon is Illuminated

Extremos de hoy

Máximos del estado Bajos del estado

Community

WunderPhotos

Upload Photos

1,928,497 ¡fotos cargadas!

WunderBlog® & News

Nearby

Calidad del aire

  Calidad del aire Índice AQ Contaminante
Not available.

Grosos de nieve

Estación Profundido Altura

Actividad de terremotos

Ciudad Distance Mag. Tiempo y dato
Magnitud mínima muestra es 2,5.

Temperaturas de aguas costeras

Lugar Temperatura

Stations

Estaciones meteorológicas cercanas

Ubicación de la estación Temp. Vientos helados Punto de rocío Humedad Viento Precip. Alt Actualizado Tipo
                   

Watches & Warnings

Fire Weather Warning
Issued: 2:23 PM PDT Jul. 29, 2016 – National Weather Service

... Red flag warning in effect from 1 PM to 9 PM PDT Saturday for
gusty winds and low humidity...

The National Weather Service in Pendleton has issued a red flag
warning... which is in effect from 1 PM to 9 PM PDT Saturday. The
Fire Weather Watch is no longer in effect.

* Affected area... Washington and Oregon fire zone 641 covering
the lower Columbia Basin and Blue Mountain foothills.
Washington fire zone 675 covering the Hanford district and the
Yakima Valley.

* Timing... the strongest winds will occur between 3 PM and 8 PM.

* Wind... southwest to west wind 15 to 25 mph with gusts to 35 mph.

* Humidity... 12 to 18 percent.

* Impacts... any fires that develop will likely spread rapidly.
Outdoor burning is not recommended.

Precautionary/preparedness actions...

A red flag warning means that critical fire weather conditions
are either occurring now... .or will shortly. A combination of
strong winds... low relative humidity... and warm temperatures can
contribute to extreme fire behavior.